sensor_id;sensor_type;location;lat;lon;timestamp;temperature;humidity
6106;DHT22;3083;51.508;7.966;2023-09-30T00:01:23;13.40;99.90
6106;DHT22;3083;51.508;7.966;2023-09-30T00:03:50;13.40;99.90
6106;DHT22;3083;51.508;7.966;2023-09-30T00:06:16;13.40;99.90
6106;DHT22;3083;51.508;7.966;2023-09-30T00:08:43;13.40;99.90
6106;DHT22;3083;51.508;7.966;2023-09-30T00:11:11;13.40;99.90
6106;DHT22;3083;51.508;7.966;2023-09-30T00:13:38;13.40;99.90
6106;DHT22;3083;51.508;7.966;2023-09-30T00:16:06;13.30;99.90
6106;DHT22;3083;51.508;7.966;2023-09-30T00:18:33;13.30;99.90
6106;DHT22;3083;51.508;7.966;2023-09-30T00:21:00;13.30;99.90
6106;DHT22;3083;51.508;7.966;2023-09-30T00:23:27;13.20;99.90
6106;DHT22;3083;51.508;7.966;2023-09-30T00:25:54;13.20;99.90
6106;DHT22;3083;51.508;7.966;2023-09-30T00:28:21;13.20;99.90
6106;DHT22;3083;51.508;7.966;2023-09-30T00:30:48;13.10;99.90
6106;DHT22;3083;51.508;7.966;2023-09-30T00:33:17;13.10;99.90
6106;DHT22;3083;51.508;7.966;2023-09-30T00:35:44;13.10;99.90
6106;DHT22;3083;51.508;7.966;2023-09-30T00:38:11;13.10;99.90
6106;DHT22;3083;51.508;7.966;2023-09-30T00:40:39;13.00;99.90
6106;DHT22;3083;51.508;7.966;2023-09-30T00:43:18;13.00;99.90
6106;DHT22;3083;51.508;7.966;2023-09-30T00:45:45;12.90;99.90
6106;DHT22;3083;51.508;7.966;2023-09-30T00:48:12;12.80;99.90
6106;DHT22;3083;51.508;7.966;2023-09-30T00:50:40;12.80;99.90
6106;DHT22;3083;51.508;7.966;2023-09-30T00:53:07;12.80;99.90
6106;DHT22;3083;51.508;7.966;2023-09-30T00:55:36;12.80;99.90
6106;DHT22;3083;51.508;7.966;2023-09-30T00:58:03;12.80;99.90
6106;DHT22;3083;51.508;7.966;2023-09-30T01:00:31;12.90;99.90
6106;DHT22;3083;51.508;7.966;2023-09-30T01:02:58;12.90;99.90
6106;DHT22;3083;51.508;7.966;2023-09-30T01:05:29;12.90;99.90
6106;DHT22;3083;51.508;7.966;2023-09-30T01:07:57;12.90;99.90
6106;DHT22;3083;51.508;7.966;2023-09-30T01:10:24;12.90;99.90
6106;DHT22;3083;51.508;7.966;2023-09-30T01:12:51;12.90;99.90
6106;DHT22;3083;51.508;7.966;2023-09-30T01:15:18;12.90;99.90
6106;DHT22;3083;51.508;7.966;2023-09-30T01:17:45;12.90;99.90
6106;DHT22;3083;51.508;7.966;2023-09-30T01:20:13;12.90;99.90
6106;DHT22;3083;51.508;7.966;2023-09-30T01:22:43;12.90;99.90
6106;DHT22;3083;51.508;7.966;2023-09-30T01:25:11;12.90;99.90
6106;DHT22;3083;51.508;7.966;2023-09-30T01:27:38;12.90;99.90
6106;DHT22;3083;51.508;7.966;2023-09-30T01:30:05;12.80;99.90
6106;DHT22;3083;51.508;7.966;2023-09-30T01:32:36;12.70;99.90
6106;DHT22;3083;51.508;7.966;2023-09-30T01:35:03;12.80;99.90
6106;DHT22;3083;51.508;7.966;2023-09-30T01:37:30;12.80;99.90
6106;DHT22;3083;51.508;7.966;2023-09-30T01:39:59;12.80;99.90
6106;DHT22;3083;51.508;7.966;2023-09-30T01:42:26;12.80;99.90
6106;DHT22;3083;51.508;7.966;2023-09-30T01:44:53;12.80;99.90
6106;DHT22;3083;51.508;7.966;2023-09-30T01:47:20;12.80;99.90
6106;DHT22;3083;51.508;7.966;2023-09-30T01:49:46;12.70;99.90
6106;DHT22;3083;51.508;7.966;2023-09-30T01:52:13;12.70;99.90
6106;DHT22;3083;51.508;7.966;2023-09-30T01:54:40;12.70;99.90
6106;DHT22;3083;51.508;7.966;2023-09-30T01:57:09;12.70;99.90
6106;DHT22;3083;51.508;7.966;2023-09-30T01:59:35;12.80;99.90
6106;DHT22;3083;51.508;7.966;2023-09-30T02:02:02;12.90;99.90
6106;DHT22;3083;51.508;7.966;2023-09-30T02:04:29;12.90;99.90
6106;DHT22;3083;51.508;7.966;2023-09-30T02:06:56;12.90;99.90
6106;DHT22;3083;51.508;7.966;2023-09-30T02:09:23;12.90;99.90
6106;DHT22;3083;51.508;7.966;2023-09-30T02:11:50;12.90;99.90
6106;DHT22;3083;51.508;7.966;2023-09-30T02:14:18;12.90;99.90
6106;DHT22;3083;51.508;7.966;2023-09-30T02:16:46;12.90;99.90
6106;DHT22;3083;51.508;7.966;2023-09-30T02:19:13;13.00;99.90
6106;DHT22;3083;51.508;7.966;2023-09-30T02:21:40;12.90;99.90
6106;DHT22;3083;51.508;7.966;2023-09-30T02:24:07;12.90;99.90
6106;DHT22;3083;51.508;7.966;2023-09-30T02:26:34;12.90;99.90
6106;DHT22;3083;51.508;7.966;2023-09-30T02:29:00;12.80;99.90
6106;DHT22;3083;51.508;7.966;2023-09-30T02:31:29;12.80;99.90
6106;DHT22;3083;51.508;7.966;2023-09-30T02:33:55;12.70;99.90
6106;DHT22;3083;51.508;7.966;2023-09-30T02:36:22;12.70;99.90
6106;DHT22;3083;51.508;7.966;2023-09-30T02:38:49;12.70;99.90
6106;DHT22;3083;51.508;7.966;2023-09-30T02:41:16;12.70;99.90
6106;DHT22;3083;51.508;7.966;2023-09-30T02:43:43;12.70;99.90
6106;DHT22;3083;51.508;7.966;2023-09-30T02:46:10;12.70;99.90
6106;DHT22;3083;51.508;7.966;2023-09-30T02:48:39;12.70;99.90
6106;DHT22;3083;51.508;7.966;2023-09-30T02:51:09;12.60;99.90
6106;DHT22;3083;51.508;7.966;2023-09-30T02:53:36;12.50;99.90
6106;DHT22;3083;51.508;7.966;2023-09-30T02:56:03;12.50;99.90
6106;DHT22;3083;51.508;7.966;2023-09-30T02:58:30;12.50;99.90
6106;DHT22;3083;51.508;7.966;2023-09-30T03:00:57;12.60;99.90
6106;DHT22;3083;51.508;7.966;2023-09-30T03:03:25;12.60;99.90
6106;DHT22;3083;51.508;7.966;2023-09-30T03:05:54;12.60;99.90
6106;DHT22;3083;51.508;7.966;2023-09-30T03:08:21;12.60;99.90
6106;DHT22;3083;51.508;7.966;2023-09-30T03:10:50;12.60;99.90
6106;DHT22;3083;51.508;7.966;2023-09-30T03:13:18;12.60;99.90
6106;DHT22;3083;51.508;7.966;2023-09-30T03:15:47;12.60;99.90
6106;DHT22;3083;51.508;7.966;2023-09-30T03:18:15;12.60;99.90
6106;DHT22;3083;51.508;7.966;2023-09-30T03:20:42;12.60;99.90
6106;DHT22;3083;51.508;7.966;2023-09-30T03:23:10;12.60;99.90
6106;DHT22;3083;51.508;7.966;2023-09-30T03:25:39;12.50;99.90
6106;DHT22;3083;51.508;7.966;2023-09-30T03:28:07;12.50;99.90
6106;DHT22;3083;51.508;7.966;2023-09-30T03:30:34;12.40;99.90
6106;DHT22;3083;51.508;7.966;2023-09-30T03:33:01;12.40;99.90
6106;DHT22;3083;51.508;7.966;2023-09-30T03:35:30;12.40;99.90
6106;DHT22;3083;51.508;7.966;2023-09-30T03:37:57;12.40;99.90
6106;DHT22;3083;51.508;7.966;2023-09-30T03:40:27;12.40;99.90
6106;DHT22;3083;51.508;7.966;2023-09-30T03:42:59;12.40;99.90
6106;DHT22;3083;51.508;7.966;2023-09-30T03:45:26;12.40;99.90
6106;DHT22;3083;51.508;7.966;2023-09-30T03:47:52;12.40;99.90
6106;DHT22;3083;51.508;7.966;2023-09-30T03:50:18;12.40;99.90
6106;DHT22;3083;51.508;7.966;2023-09-30T03:52:47;12.40;99.90
6106;DHT22;3083;51.508;7.966;2023-09-30T03:55:15;12.30;99.90
6106;DHT22;3083;51.508;7.966;2023-09-30T03:57:44;12.30;99.90
6106;DHT22;3083;51.508;7.966;2023-09-30T04:00:13;12.20;99.90
6106;DHT22;3083;51.508;7.966;2023-09-30T04:02:44;12.10;99.90
6106;DHT22;3083;51.508;7.966;2023-09-30T04:05:14;12.10;99.90
6106;DHT22;3083;51.508;7.966;2023-09-30T04:07:42;12.20;99.90
6106;DHT22;3083;51.508;7.966;2023-09-30T04:10:09;12.20;99.90
6106;DHT22;3083;51.508;7.966;2023-09-30T04:12:36;12.20;99.90
6106;DHT22;3083;51.508;7.966;2023-09-30T04:15:06;12.20;99.90
6106;DHT22;3083;51.508;7.966;2023-09-30T04:17:37;12.10;99.90
6106;DHT22;3083;51.508;7.966;2023-09-30T04:20:05;12.10;99.90
6106;DHT22;3083;51.508;7.966;2023-09-30T04:22:34;12.10;99.90
6106;DHT22;3083;51.508;7.966;2023-09-30T04:25:01;12.00;99.90
6106;DHT22;3083;51.508;7.966;2023-09-30T04:27:31;12.00;99.90
6106;DHT22;3083;51.508;7.966;2023-09-30T04:29:58;12.00;99.90
6106;DHT22;3083;51.508;7.966;2023-09-30T04:32:26;12.00;99.90
6106;DHT22;3083;51.508;7.966;2023-09-30T04:34:53;12.00;99.90
6106;DHT22;3083;51.508;7.966;2023-09-30T04:37:20;12.00;99.90
6106;DHT22;3083;51.508;7.966;2023-09-30T04:39:47;12.00;99.90
6106;DHT22;3083;51.508;7.966;2023-09-30T04:42:14;11.90;99.90
6106;DHT22;3083;51.508;7.966;2023-09-30T04:44:41;11.90;99.90
6106;DHT22;3083;51.508;7.966;2023-09-30T04:47:09;11.80;99.90
6106;DHT22;3083;51.508;7.966;2023-09-30T04:49:37;11.80;99.90
6106;DHT22;3083;51.508;7.966;2023-09-30T04:52:04;11.80;99.90
6106;DHT22;3083;51.508;7.966;2023-09-30T04:54:32;11.80;99.90
6106;DHT22;3083;51.508;7.966;2023-09-30T04:57:01;11.60;99.90
6106;DHT22;3083;51.508;7.966;2023-09-30T04:59:27;11.50;99.90
6106;DHT22;3083;51.508;7.966;2023-09-30T05:01:55;11.50;99.90
6106;DHT22;3083;51.508;7.966;2023-09-30T05:04:22;11.50;99.90
6106;DHT22;3083;51.508;7.966;2023-09-30T05:06:52;11.60;99.90
6106;DHT22;3083;51.508;7.966;2023-09-30T05:09:19;11.60;99.90
6106;DHT22;3083;51.508;7.966;2023-09-30T05:11:46;11.60;99.90
6106;DHT22;3083;51.508;7.966;2023-09-30T05:14:13;11.60;99.90
6106;DHT22;3083;51.508;7.966;2023-09-30T05:16:40;11.60;99.90
6106;DHT22;3083;51.508;7.966;2023-09-30T05:19:09;11.60;99.90
6106;DHT22;3083;51.508;7.966;2023-09-30T05:21:35;11.50;99.90
6106;DHT22;3083;51.508;7.966;2023-09-30T05:24:05;11.50;99.90
6106;DHT22;3083;51.508;7.966;2023-09-30T05:26:32;11.40;99.90
6106;DHT22;3083;51.508;7.966;2023-09-30T05:28:59;11.40;99.90
6106;DHT22;3083;51.508;7.966;2023-09-30T05:31:26;11.40;99.90
6106;DHT22;3083;51.508;7.966;2023-09-30T05:33:53;11.40;99.90
6106;DHT22;3083;51.508;7.966;2023-09-30T05:36:20;11.40;99.90
6106;DHT22;3083;51.508;7.966;2023-09-30T05:38:47;11.50;99.90
6106;DHT22;3083;51.508;7.966;2023-09-30T05:41:16;11.50;99.90
6106;DHT22;3083;51.508;7.966;2023-09-30T05:43:43;11.40;99.90
6106;DHT22;3083;51.508;7.966;2023-09-30T05:46:10;11.40;99.90
6106;DHT22;3083;51.508;7.966;2023-09-30T05:48:37;11.40;99.90
6106;DHT22;3083;51.508;7.966;2023-09-30T05:51:05;11.40;99.90
6106;DHT22;3083;51.508;7.966;2023-09-30T05:53:32;11.40;99.90
6106;DHT22;3083;51.508;7.966;2023-09-30T05:55:59;11.50;99.90
6106;DHT22;3083;51.508;7.966;2023-09-30T05:58:27;11.50;99.90
6106;DHT22;3083;51.508;7.966;2023-09-30T06:00:54;11.40;99.90
6106;DHT22;3083;51.508;7.966;2023-09-30T06:03:23;11.40;99.90
6106;DHT22;3083;51.508;7.966;2023-09-30T06:05:50;11.40;99.90
6106;DHT22;3083;51.508;7.966;2023-09-30T06:08:17;11.50;99.90
6106;DHT22;3083;51.508;7.966;2023-09-30T06:10:44;11.60;99.90
6106;DHT22;3083;51.508;7.966;2023-09-30T06:13:12;11.60;99.90
6106;DHT22;3083;51.508;7.966;2023-09-30T06:15:41;11.80;99.90
6106;DHT22;3083;51.508;7.966;2023-09-30T06:18:09;11.90;99.90
6106;DHT22;3083;51.508;7.966;2023-09-30T06:20:38;11.90;99.90
6106;DHT22;3083;51.508;7.966;2023-09-30T06:23:06;12.00;99.90
6106;DHT22;3083;51.508;7.966;2023-09-30T06:25:35;12.20;99.90
6106;DHT22;3083;51.508;7.966;2023-09-30T06:28:02;12.30;99.90
6106;DHT22;3083;51.508;7.966;2023-09-30T06:30:30;12.50;99.90
6106;DHT22;3083;51.508;7.966;2023-09-30T06:33:01;12.60;99.90
6106;DHT22;3083;51.508;7.966;2023-09-30T06:35:30;12.70;99.90
6106;DHT22;3083;51.508;7.966;2023-09-30T06:38:03;12.90;99.90
6106;DHT22;3083;51.508;7.966;2023-09-30T06:40:30;13.20;99.90
6106;DHT22;3083;51.508;7.966;2023-09-30T06:42:57;13.40;99.90
6106;DHT22;3083;51.508;7.966;2023-09-30T06:45:26;13.70;99.90
6106;DHT22;3083;51.508;7.966;2023-09-30T06:47:53;13.90;99.90
6106;DHT22;3083;51.508;7.966;2023-09-30T06:50:22;14.10;99.90
6106;DHT22;3083;51.508;7.966;2023-09-30T06:52:49;14.40;99.90
6106;DHT22;3083;51.508;7.966;2023-09-30T06:55:16;14.60;99.90
6106;DHT22;3083;51.508;7.966;2023-09-30T06:57:43;14.80;99.90
6106;DHT22;3083;51.508;7.966;2023-09-30T07:00:11;15.00;99.90
6106;DHT22;3083;51.508;7.966;2023-09-30T07:02:39;15.30;99.90
6106;DHT22;3083;51.508;7.966;2023-09-30T07:05:07;15.50;99.90
6106;DHT22;3083;51.508;7.966;2023-09-30T07:07:36;15.80;99.90
6106;DHT22;3083;51.508;7.966;2023-09-30T07:10:03;16.00;99.90
6106;DHT22;3083;51.508;7.966;2023-09-30T07:12:31;16.20;99.90
6106;DHT22;3083;51.508;7.966;2023-09-30T07:15:01;16.40;99.90
6106;DHT22;3083;51.508;7.966;2023-09-30T07:17:28;16.60;99.90
6106;DHT22;3083;51.508;7.966;2023-09-30T07:19:55;16.80;99.90
6106;DHT22;3083;51.508;7.966;2023-09-30T07:22:22;17.00;99.90
6106;DHT22;3083;51.508;7.966;2023-09-30T07:24:50;17.20;99.90
6106;DHT22;3083;51.508;7.966;2023-09-30T07:27:17;17.30;99.90
6106;DHT22;3083;51.508;7.966;2023-09-30T07:29:44;17.40;99.90
6106;DHT22;3083;51.508;7.966;2023-09-30T07:32:11;17.50;99.90
6106;DHT22;3083;51.508;7.966;2023-09-30T07:34:38;17.50;99.90
6106;DHT22;3083;51.508;7.966;2023-09-30T07:37:05;17.60;99.90
6106;DHT22;3083;51.508;7.966;2023-09-30T07:39:32;17.70;99.90
6106;DHT22;3083;51.508;7.966;2023-09-30T07:42:01;17.70;99.90
6106;DHT22;3083;51.508;7.966;2023-09-30T07:44:29;17.70;99.90
6106;DHT22;3083;51.508;7.966;2023-09-30T07:46:56;17.60;99.90
6106;DHT22;3083;51.508;7.966;2023-09-30T07:49:24;17.60;99.90
6106;DHT22;3083;51.508;7.966;2023-09-30T07:51:51;17.60;99.90
6106;DHT22;3083;51.508;7.966;2023-09-30T07:54:18;17.70;99.90
6106;DHT22;3083;51.508;7.966;2023-09-30T07:56:44;17.90;99.90
6106;DHT22;3083;51.508;7.966;2023-09-30T07:59:13;18.20;99.90
6106;DHT22;3083;51.508;7.966;2023-09-30T08:01:41;18.30;99.90
6106;DHT22;3083;51.508;7.966;2023-09-30T08:04:08;18.40;99.90
6106;DHT22;3083;51.508;7.966;2023-09-30T08:06:35;18.50;99.90
6106;DHT22;3083;51.508;7.966;2023-09-30T08:09:02;18.60;99.90
6106;DHT22;3083;51.508;7.966;2023-09-30T08:11:35;18.70;99.90
6106;DHT22;3083;51.508;7.966;2023-09-30T08:14:02;18.90;99.90
6106;DHT22;3083;51.508;7.966;2023-09-30T08:16:33;18.90;99.90
6106;DHT22;3083;51.508;7.966;2023-09-30T08:19:00;18.90;99.90
6106;DHT22;3083;51.508;7.966;2023-09-30T08:21:27;18.90;99.90
6106;DHT22;3083;51.508;7.966;2023-09-30T08:23:53;19.00;99.90
6106;DHT22;3083;51.508;7.966;2023-09-30T08:26:20;19.10;99.90
6106;DHT22;3083;51.508;7.966;2023-09-30T08:28:47;19.20;99.90
6106;DHT22;3083;51.508;7.966;2023-09-30T08:31:14;19.30;99.90
6106;DHT22;3083;51.508;7.966;2023-09-30T08:33:42;19.50;99.90
6106;DHT22;3083;51.508;7.966;2023-09-30T08:36:11;19.70;99.90
6106;DHT22;3083;51.508;7.966;2023-09-30T08:38:40;19.60;99.90
6106;DHT22;3083;51.508;7.966;2023-09-30T08:41:07;19.60;99.90
6106;DHT22;3083;51.508;7.966;2023-09-30T08:43:37;19.70;99.90
6106;DHT22;3083;51.508;7.966;2023-09-30T08:46:05;19.80;99.90
6106;DHT22;3083;51.508;7.966;2023-09-30T08:48:32;19.90;99.90
6106;DHT22;3083;51.508;7.966;2023-09-30T08:51:01;20.00;99.90
6106;DHT22;3083;51.508;7.966;2023-09-30T08:53:30;20.10;99.90
6106;DHT22;3083;51.508;7.966;2023-09-30T08:55:57;20.20;99.90
6106;DHT22;3083;51.508;7.966;2023-09-30T08:58:27;20.30;99.90
6106;DHT22;3083;51.508;7.966;2023-09-30T09:00:54;20.30;99.90
6106;DHT22;3083;51.508;7.966;2023-09-30T09:03:22;20.30;99.90
6106;DHT22;3083;51.508;7.966;2023-09-30T09:05:54;20.20;99.90
6106;DHT22;3083;51.508;7.966;2023-09-30T09:08:25;20.30;99.90
6106;DHT22;3083;51.508;7.966;2023-09-30T09:10:56;20.30;99.90
6106;DHT22;3083;51.508;7.966;2023-09-30T09:13:23;20.20;99.90
6106;DHT22;3083;51.508;7.966;2023-09-30T09:16:05;20.20;99.90
6106;DHT22;3083;51.508;7.966;2023-09-30T09:18:34;20.30;99.90
6106;DHT22;3083;51.508;7.966;2023-09-30T09:21:09;20.20;99.90
6106;DHT22;3083;51.508;7.966;2023-09-30T09:23:42;20.20;99.90
6106;DHT22;3083;51.508;7.966;2023-09-30T09:26:10;20.30;99.90
6106;DHT22;3083;51.508;7.966;2023-09-30T09:28:38;20.40;99.90
6106;DHT22;3083;51.508;7.966;2023-09-30T09:31:23;20.50;99.90
6106;DHT22;3083;51.508;7.966;2023-09-30T09:33:50;20.50;99.90
6106;DHT22;3083;51.508;7.966;2023-09-30T09:36:19;20.50;99.90
6106;DHT22;3083;51.508;7.966;2023-09-30T09:38:49;20.60;99.90
6106;DHT22;3083;51.508;7.966;2023-09-30T09:41:19;20.70;99.90
6106;DHT22;3083;51.508;7.966;2023-09-30T09:43:48;20.60;99.90
6106;DHT22;3083;51.508;7.966;2023-09-30T09:46:17;20.60;99.90
6106;DHT22;3083;51.508;7.966;2023-09-30T09:48:45;20.70;99.90
6106;DHT22;3083;51.508;7.966;2023-09-30T09:51:13;20.40;99.90
6106;DHT22;3083;51.508;7.966;2023-09-30T09:53:41;20.10;99.90
6106;DHT22;3083;51.508;7.966;2023-09-30T09:56:10;20.10;99.90
6106;DHT22;3083;51.508;7.966;2023-09-30T09:58:40;20.10;99.90
6106;DHT22;3083;51.508;7.966;2023-09-30T10:01:09;20.30;99.90
6106;DHT22;3083;51.508;7.966;2023-09-30T10:03:37;20.50;99.90
6106;DHT22;3083;51.508;7.966;2023-09-30T10:06:05;20.60;99.90
6106;DHT22;3083;51.508;7.966;2023-09-30T10:08:38;20.50;99.90
6106;DHT22;3083;51.508;7.966;2023-09-30T10:11:06;20.70;99.90
6106;DHT22;3083;51.508;7.966;2023-09-30T10:13:54;20.90;99.90
6106;DHT22;3083;51.508;7.966;2023-09-30T10:16:47;20.90;99.90
6106;DHT22;3083;51.508;7.966;2023-09-30T10:19:15;20.70;99.90
6106;DHT22;3083;51.508;7.966;2023-09-30T10:24:45;20.20;99.90
6106;DHT22;3083;51.508;7.966;2023-09-30T10:27:31;20.00;99.90
6106;DHT22;3083;51.508;7.966;2023-09-30T10:30:06;20.10;99.90
6106;DHT22;3083;51.508;7.966;2023-09-30T10:33:07;20.40;99.90
6106;DHT22;3083;51.508;7.966;2023-09-30T10:35:50;20.60;99.90
6106;DHT22;3083;51.508;7.966;2023-09-30T10:38:38;20.80;99.90
6106;DHT22;3083;51.508;7.966;2023-09-30T10:41:07;21.00;99.90
6106;DHT22;3083;51.508;7.966;2023-09-30T10:43:36;21.30;99.90
6106;DHT22;3083;51.508;7.966;2023-09-30T10:46:31;21.30;99.90
6106;DHT22;3083;51.508;7.966;2023-09-30T10:49:30;21.30;99.90
6106;DHT22;3083;51.508;7.966;2023-09-30T10:52:01;21.40;99.90
6106;DHT22;3083;51.508;7.966;2023-09-30T10:54:29;21.30;99.90
6106;DHT22;3083;51.508;7.966;2023-09-30T10:56:58;21.40;99.90
6106;DHT22;3083;51.508;7.966;2023-09-30T10:59:26;21.40;99.90
6106;DHT22;3083;51.508;7.966;2023-09-30T11:01:54;21.10;99.90
6106;DHT22;3083;51.508;7.966;2023-09-30T11:04:21;20.90;99.90
6106;DHT22;3083;51.508;7.966;2023-09-30T11:06:49;20.70;99.90
6106;DHT22;3083;51.508;7.966;2023-09-30T11:09:17;20.50;99.90
6106;DHT22;3083;51.508;7.966;2023-09-30T11:11:46;20.30;99.90
6106;DHT22;3083;51.508;7.966;2023-09-30T11:14:22;20.20;99.90
6106;DHT22;3083;51.508;7.966;2023-09-30T11:16:50;20.10;99.90
6106;DHT22;3083;51.508;7.966;2023-09-30T11:19:19;19.90;99.90
6106;DHT22;3083;51.508;7.966;2023-09-30T11:21:48;19.80;99.90
6106;DHT22;3083;51.508;7.966;2023-09-30T11:24:16;20.00;99.90
6106;DHT22;3083;51.508;7.966;2023-09-30T11:26:44;20.20;99.90
6106;DHT22;3083;51.508;7.966;2023-09-30T11:29:11;20.50;99.90
6106;DHT22;3083;51.508;7.966;2023-09-30T11:31:39;20.80;99.90
6106;DHT22;3083;51.508;7.966;2023-09-30T11:34:08;21.10;99.90
6106;DHT22;3083;51.508;7.966;2023-09-30T11:36:37;21.30;99.90
6106;DHT22;3083;51.508;7.966;2023-09-30T11:39:05;21.40;99.90
6106;DHT22;3083;51.508;7.966;2023-09-30T11:41:35;21.40;99.90
6106;DHT22;3083;51.508;7.966;2023-09-30T11:44:05;21.40;99.90
6106;DHT22;3083;51.508;7.966;2023-09-30T11:46:46;21.20;99.90
6106;DHT22;3083;51.508;7.966;2023-09-30T11:49:24;21.00;99.90
6106;DHT22;3083;51.508;7.966;2023-09-30T11:51:53;20.80;99.90
6106;DHT22;3083;51.508;7.966;2023-09-30T11:54:20;20.50;99.90
6106;DHT22;3083;51.508;7.966;2023-09-30T11:56:48;20.50;99.90
6106;DHT22;3083;51.508;7.966;2023-09-30T11:59:16;20.50;99.90
6106;DHT22;3083;51.508;7.966;2023-09-30T12:01:45;20.60;99.90
6106;DHT22;3083;51.508;7.966;2023-09-30T12:04:14;20.70;99.90
6106;DHT22;3083;51.508;7.966;2023-09-30T12:06:43;20.80;99.90
6106;DHT22;3083;51.508;7.966;2023-09-30T12:09:11;20.90;99.90
6106;DHT22;3083;51.508;7.966;2023-09-30T12:11:40;21.00;99.90
6106;DHT22;3083;51.508;7.966;2023-09-30T12:14:10;21.10;99.90
6106;DHT22;3083;51.508;7.966;2023-09-30T12:16:37;21.10;99.90
6106;DHT22;3083;51.508;7.966;2023-09-30T12:19:04;21.20;99.90
6106;DHT22;3083;51.508;7.966;2023-09-30T12:21:32;21.30;99.90
6106;DHT22;3083;51.508;7.966;2023-09-30T12:24:01;21.40;99.90
6106;DHT22;3083;51.508;7.966;2023-09-30T12:26:30;21.50;99.90
6106;DHT22;3083;51.508;7.966;2023-09-30T12:28:57;21.60;99.90
6106;DHT22;3083;51.508;7.966;2023-09-30T12:31:24;21.50;99.90
6106;DHT22;3083;51.508;7.966;2023-09-30T12:33:51;21.60;99.90
6106;DHT22;3083;51.508;7.966;2023-09-30T12:36:19;21.50;99.90
6106;DHT22;3083;51.508;7.966;2023-09-30T12:38:46;21.50;99.90
6106;DHT22;3083;51.508;7.966;2023-09-30T12:41:13;21.40;99.90
6106;DHT22;3083;51.508;7.966;2023-09-30T12:43:41;21.40;99.90
6106;DHT22;3083;51.508;7.966;2023-09-30T12:46:08;21.50;99.90
6106;DHT22;3083;51.508;7.966;2023-09-30T12:48:38;21.50;99.90
6106;DHT22;3083;51.508;7.966;2023-09-30T12:51:05;21.50;99.90
6106;DHT22;3083;51.508;7.966;2023-09-30T12:53:35;21.40;99.90
6106;DHT22;3083;51.508;7.966;2023-09-30T12:56:02;21.20;99.90
6106;DHT22;3083;51.508;7.966;2023-09-30T12:58:29;21.10;99.90
6106;DHT22;3083;51.508;7.966;2023-09-30T13:00:57;21.20;99.90
6106;DHT22;3083;51.508;7.966;2023-09-30T13:03:26;21.30;99.90
6106;DHT22;3083;51.508;7.966;2023-09-30T13:05:53;21.30;99.90
6106;DHT22;3083;51.508;7.966;2023-09-30T13:08:20;21.30;99.90
6106;DHT22;3083;51.508;7.966;2023-09-30T13:10:47;21.40;99.90
6106;DHT22;3083;51.508;7.966;2023-09-30T13:13:16;21.40;99.90
6106;DHT22;3083;51.508;7.966;2023-09-30T13:15:42;21.50;99.90
6106;DHT22;3083;51.508;7.966;2023-09-30T13:18:11;21.60;99.90
6106;DHT22;3083;51.508;7.966;2023-09-30T13:20:38;21.60;99.90
6106;DHT22;3083;51.508;7.966;2023-09-30T13:23:05;21.50;99.90
6106;DHT22;3083;51.508;7.966;2023-09-30T13:25:32;21.50;99.90
6106;DHT22;3083;51.508;7.966;2023-09-30T13:27:59;21.50;99.90
6106;DHT22;3083;51.508;7.966;2023-09-30T13:30:27;21.40;99.90
6106;DHT22;3083;51.508;7.966;2023-09-30T13:32:54;21.30;99.90
6106;DHT22;3083;51.508;7.966;2023-09-30T13:35:22;21.30;99.90
6106;DHT22;3083;51.508;7.966;2023-09-30T13:37:50;21.20;99.90
6106;DHT22;3083;51.508;7.966;2023-09-30T13:40:17;21.20;99.90
6106;DHT22;3083;51.508;7.966;2023-09-30T13:42:44;21.10;99.90
6106;DHT22;3083;51.508;7.966;2023-09-30T13:45:12;21.20;99.90
6106;DHT22;3083;51.508;7.966;2023-09-30T13:47:40;21.10;99.90
6106;DHT22;3083;51.508;7.966;2023-09-30T13:50:08;20.90;99.90
6106;DHT22;3083;51.508;7.966;2023-09-30T13:52:37;20.90;99.90
6106;DHT22;3083;51.508;7.966;2023-09-30T13:55:05;20.90;99.90
6106;DHT22;3083;51.508;7.966;2023-09-30T13:57:32;20.80;99.90
6106;DHT22;3083;51.508;7.966;2023-09-30T13:59:59;20.60;99.90
6106;DHT22;3083;51.508;7.966;2023-09-30T14:02:26;20.60;99.90
6106;DHT22;3083;51.508;7.966;2023-09-30T14:04:52;20.50;99.90
6106;DHT22;3083;51.508;7.966;2023-09-30T14:07:20;20.40;99.90
6106;DHT22;3083;51.508;7.966;2023-09-30T14:09:48;20.30;99.90
6106;DHT22;3083;51.508;7.966;2023-09-30T14:12:15;20.30;99.90
6106;DHT22;3083;51.508;7.966;2023-09-30T14:14:41;20.10;99.90
6106;DHT22;3083;51.508;7.966;2023-09-30T14:17:08;20.00;99.90
6106;DHT22;3083;51.508;7.966;2023-09-30T14:19:36;20.00;99.90
6106;DHT22;3083;51.508;7.966;2023-09-30T14:22:04;19.90;99.90
6106;DHT22;3083;51.508;7.966;2023-09-30T14:24:31;19.90;99.90
6106;DHT22;3083;51.508;7.966;2023-09-30T14:27:01;19.90;99.90
6106;DHT22;3083;51.508;7.966;2023-09-30T14:29:28;19.80;99.90
6106;DHT22;3083;51.508;7.966;2023-09-30T14:31:55;19.80;99.90
6106;DHT22;3083;51.508;7.966;2023-09-30T14:34:23;19.70;99.90
6106;DHT22;3083;51.508;7.966;2023-09-30T14:36:50;19.70;99.90
6106;DHT22;3083;51.508;7.966;2023-09-30T14:39:18;19.70;99.90
6106;DHT22;3083;51.508;7.966;2023-09-30T14:41:45;19.60;99.90
6106;DHT22;3083;51.508;7.966;2023-09-30T14:44:14;19.60;99.90
6106;DHT22;3083;51.508;7.966;2023-09-30T14:46:42;19.60;99.90
6106;DHT22;3083;51.508;7.966;2023-09-30T14:49:10;19.50;99.90
6106;DHT22;3083;51.508;7.966;2023-09-30T14:51:37;19.50;99.90
6106;DHT22;3083;51.508;7.966;2023-09-30T14:54:04;19.40;99.90
6106;DHT22;3083;51.508;7.966;2023-09-30T14:56:31;19.30;99.90
6106;DHT22;3083;51.508;7.966;2023-09-30T14:58:58;19.20;99.90
6106;DHT22;3083;51.508;7.966;2023-09-30T15:01:26;19.20;99.90
6106;DHT22;3083;51.508;7.966;2023-09-30T15:03:54;19.10;99.90
6106;DHT22;3083;51.508;7.966;2023-09-30T15:06:22;19.10;99.90
6106;DHT22;3083;51.508;7.966;2023-09-30T15:08:50;19.10;99.90
6106;DHT22;3083;51.508;7.966;2023-09-30T15:11:16;18.90;99.90
6106;DHT22;3083;51.508;7.966;2023-09-30T15:13:44;18.90;99.90
6106;DHT22;3083;51.508;7.966;2023-09-30T15:16:15;18.80;99.90
6106;DHT22;3083;51.508;7.966;2023-09-30T15:18:44;18.80;99.90
6106;DHT22;3083;51.508;7.966;2023-09-30T15:21:11;18.70;99.90
6106;DHT22;3083;51.508;7.966;2023-09-30T15:23:38;18.60;99.90
6106;DHT22;3083;51.508;7.966;2023-09-30T15:26:04;18.50;99.90
6106;DHT22;3083;51.508;7.966;2023-09-30T15:28:32;18.50;99.90
6106;DHT22;3083;51.508;7.966;2023-09-30T15:30:59;18.40;99.90
6106;DHT22;3083;51.508;7.966;2023-09-30T15:33:27;18.40;99.90
6106;DHT22;3083;51.508;7.966;2023-09-30T15:35:55;18.30;99.90
6106;DHT22;3083;51.508;7.966;2023-09-30T15:38:22;18.20;99.90
6106;DHT22;3083;51.508;7.966;2023-09-30T15:40:54;18.20;99.90
6106;DHT22;3083;51.508;7.966;2023-09-30T15:43:23;18.10;99.90
6106;DHT22;3083;51.508;7.966;2023-09-30T15:45:50;18.10;99.90
6106;DHT22;3083;51.508;7.966;2023-09-30T15:48:17;18.00;99.90
6106;DHT22;3083;51.508;7.966;2023-09-30T15:50:44;17.90;99.90
6106;DHT22;3083;51.508;7.966;2023-09-30T15:53:12;17.90;99.90
6106;DHT22;3083;51.508;7.966;2023-09-30T15:55:39;17.80;99.90
6106;DHT22;3083;51.508;7.966;2023-09-30T15:58:06;17.70;99.90
6106;DHT22;3083;51.508;7.966;2023-09-30T16:00:36;17.60;99.90
6106;DHT22;3083;51.508;7.966;2023-09-30T16:03:04;17.60;99.90
6106;DHT22;3083;51.508;7.966;2023-09-30T16:05:32;17.50;99.90
6106;DHT22;3083;51.508;7.966;2023-09-30T16:07:59;17.50;99.90
6106;DHT22;3083;51.508;7.966;2023-09-30T16:10:28;17.40;99.90
6106;DHT22;3083;51.508;7.966;2023-09-30T16:12:55;17.40;99.90